Weather reports worldwide

Advertisment
Cabo Villano, Spain (8006): temperature & dewpoint: 10.01.2018 20:00:00 - 16.01.2018 20:00:00 (CET)Cabo Villano, Spain (8006): wind speed & gusts: 10.01.2018 20:00:00 - 16.01.2018 20:00:00 (CET)Cabo Villano, Spain (8006): wind direction: 10.01.2018 20:00:00 - 16.01.2018 20:00:00 (CET)Cabo Villano, Spain (8006): precipitation: 10.01.2018 20:00:00 - 16.01.2018 20:00:00 (CET)
Date & Time tt [°C] td [°C] ff [km/h] ff [kn] fx [km/h] fx [kn] dd rr [mm]
16.01.2018 20:00:00 12,3 12,1 19 10 29 16 WSW 0,2
16.01.2018 19:00:00 12,4 12,2 26 14 37 20 SW -
16.01.2018 18:00:00 12,6 12,4 22 12 89 48 SW 0,0
16.01.2018 17:00:00 12,6 12,4 28 15 36 19 SW 0,2
16.01.2018 16:00:00 12,7 12,5 27 14 36 19 SW 0,2
16.01.2018 15:00:00 13,1 12,9 28 15 37 20 SW 0,0
16.01.2018 14:00:00 12,8 12,6 31 17 40 21 SSW 0,0
16.01.2018 13:00:00 12,7 12,5 27 14 38 20 SW -
16.01.2018 12:00:00 12,6 12,4 26 14 39 21 SW 0,1
16.01.2018 11:00:00 12,5 12,3 26 14 35 19 SSW 0,0
16.01.2018 10:00:00 12,2 12,0 26 14 34 19 SW 0,0
16.01.2018 09:00:00 12,1 11,9 24 13 37 20 SW 0,1
16.01.2018 08:00:00 12,0 11,8 21 12 34 19 SW 0,0
16.01.2018 07:00:00 12,1 11,9 27 14 37 20 SW -
16.01.2018 06:00:00 12,1 11,9 23 13 32 18 SW 0,0
16.01.2018 05:00:00 12,3 12,1 22 12 29 16 SW 0,0
16.01.2018 04:00:00 12,4 12,2 25 13 32 17 SW 0,1
16.01.2018 03:00:00 12,5 12,3 22 12 32 18 SW 0,2
16.01.2018 02:00:00 12,6 12,4 23 12 34 18 SW 0,1
16.01.2018 01:00:00 12,5 12,3 25 14 39 21 SW -
16.01.2018 00:00:00 12,7 12,5 27 15 35 19 SW 0,0
15.01.2018 23:00:00 12,7 12,5 27 15 34 18 SW 0,1
15.01.2018 22:00:00 12,9 12,7 27 15 36 19 SW 0,0
15.01.2018 21:00:00 12,8 12,6 26 14 39 21 SW 0,1
15.01.2018 20:00:00 12,8 12,6 29 16 44 24 SSW 0,8
15.01.2018 19:00:00 12,5 12,3 36 19 50 27 SSW -
15.01.2018 18:00:00 12,0 11,8 38 21 51 28 SSW 1,3
15.01.2018 17:00:00 11,7 11,5 39 21 53 29 SSW 0,9
15.01.2018 16:00:00 11,3 11,1 41 22 60 32 SSW 1,2
15.01.2018 15:00:00 11,1 10,9 46 25 61 33 SSW 0,0
15.01.2018 14:00:00 11,3 10,5 44 24 60 32 SSW 0,0
15.01.2018 13:00:00 11,9 10,1 40 22 53 28 SSW -
15.01.2018 12:00:00 11,2 10,6 35 19 45 25 SSW 0,0
15.01.2018 11:00:00 10,2 9,7 29 16 39 21 S 0,0
15.01.2018 10:00:00 9,5 9,0 26 14 33 18 S 0,0
15.01.2018 09:00:00 8,9 8,3 25 13 31 17 S 0,0
15.01.2018 08:00:00 8,4 7,8 22 12 29 16 S 0,0
15.01.2018 07:00:00 8,6 8,0 20 11 28 15 S -
15.01.2018 06:00:00 8,6 8,0 21 11 27 15 S 0,0
15.01.2018 05:00:00 7,9 7,0 18 10 26 14 S 0,0
15.01.2018 04:00:00 7,3 6,2 18 10 21 12 S 0,0
15.01.2018 03:00:00 7,4 6,2 14 7 21 11 S 0,0
15.01.2018 02:00:00 7,1 6,0 16 9 19 10 SSE 0,0
15.01.2018 01:00:00 7,1 6,0 13 7 16 9 SSE -
15.01.2018 00:00:00 6,6 5,6 12 7 16 9 SE 0,0
14.01.2018 23:00:00 7,4 5,9 6 3 10 5 SSE 0,0
14.01.2018 22:00:00 7,5 6,0 6 4 10 5 SSE 0,0
14.01.2018 21:00:00 8,2 6,0 5 3 8 4 SSE 0,0
14.01.2018 20:00:00 8,2 5,7 6 4 9 5 SE 0,0
14.01.2018 19:00:00 8,9 5,6 1 1 11 6 WSW -
14.01.2018 18:00:00 10,3 6,5 6 4 14 7 SW 0,0
14.01.2018 17:00:00 11,4 7,9 10 5 18 10 WSW 0,0
14.01.2018 16:00:00 11,3 7,8 11 6 19 10 WSW 0,0
14.01.2018 15:00:00 11,7 8,2 14 8 18 10 SW 0,0
14.01.2018 14:00:00 11,6 8,3 10 5 16 9 SW 0,0
14.01.2018 13:00:00 10,5 8,6 11 6 19 11 S -
14.01.2018 12:00:00 9,7 9,1 12 6 16 9 SE 0,0
14.01.2018 11:00:00 7,9 7,3 13 7 23 13 SSE 0,0
14.01.2018 10:00:00 6,7 5,8 12 7 21 11 SE 1,8
14.01.2018 09:00:00 6,8 5,9 13 7 19 11 SE 0,2
14.01.2018 08:00:00 6,8 5,8 14 8 21 11 SE 0,0
14.01.2018 07:00:00 7,3 6,1 8 4 27 14 S -
14.01.2018 06:00:00 7,7 5,3 8 4 22 12 SSW 0,2
14.01.2018 05:00:00 7,9 5,0 16 9 27 14 WSW 0,4
14.01.2018 04:00:00 8,1 5,0 9 5 25 14 S 0,0
14.01.2018 03:00:00 8,0 5,3 9 5 28 15 WSW 0,4
14.01.2018 02:00:00 8,6 5,4 15 8 24 13 W 0,0
14.01.2018 01:00:00 8,6 5,4 14 7 22 12 WNW -
14.01.2018 00:00:00 8,7 5,5 12 7 24 13 NW 0,0
13.01.2018 23:00:00 8,6 5,9 10 5 21 11 NW 0,0
13.01.2018 22:00:00 8,6 6,4 13 7 38 21 NW 0,0
13.01.2018 21:00:00 8,1 6,4 10 5 23 13 NNW 2,8
13.01.2018 20:00:00 8,5 6,3 3 2 27 15 SSW 1,4
13.01.2018 19:00:00 8,4 5,9 17 9 39 21 SW -
13.01.2018 18:00:00 9,2 5,9 26 14 41 22 SW 0,0
13.01.2018 17:00:00 9,9 6,3 27 14 39 21 WSW 0,2
13.01.2018 16:00:00 10,0 6,5 24 13 32 18 WSW 0,2
13.01.2018 15:00:00 11,9 8,4 15 8 20 11 SSW 0,0
13.01.2018 14:00:00 11,5 9,8 14 8 19 10 S 0,0
13.01.2018 13:00:00 9,8 7,6 20 11 34 18 WSW -
13.01.2018 12:00:00 10,7 6,8 13 7 31 17 WNW 0,0
13.01.2018 11:00:00 10,9 8,7 18 10 46 25 WSW 0,0
13.01.2018 10:00:00 10,0 8,3 16 9 24 13 W 0,0
13.01.2018 09:00:00 9,8 8,6 16 8 24 13 W 0,0
13.01.2018 08:00:00 9,7 9,1 15 8 24 13 W 0,0
13.01.2018 07:00:00 9,5 9,2 11 6 19 10 S -
13.01.2018 06:00:00 9,5 9,2 13 7 23 12 S 0,0
13.01.2018 05:00:00 9,0 8,7 16 8 23 12 SSE 0,2
13.01.2018 04:00:00 9,4 9,1 7 4 17 9 SSE 1,2
13.01.2018 03:00:00 9,4 8,9 5 3 19 10 S 1,5
13.01.2018 02:00:00 9,8 9,3 14 7 59 32 WSW 0,9
13.01.2018 01:00:00 10,6 10,1 44 24 69 38 S -
13.01.2018 00:00:00 10,4 9,9 44 24 71 39 S 0,2
12.01.2018 23:00:00 10,4 9,8 44 24 74 40 S 0,8
12.01.2018 22:00:00 10,4 9,8 41 22 66 36 S 1,6
12.01.2018 21:00:00 10,6 9,0 42 23 71 39 S 0,5
12.01.2018 20:00:00 11,6 8,5 45 25 65 35 S 0,0
12.01.2018 19:00:00 11,2 8,1 44 24 69 37 S -
12.01.2018 18:00:00 11,2 7,9 41 22 71 38 S 0,0
12.01.2018 17:00:00 11,4 7,5 42 23 64 35 S 0,0
12.01.2018 16:00:00 11,4 6,9 39 21 63 34 S 0,0
12.01.2018 15:00:00 11,4 6,1 37 20 58 32 S 0,0
12.01.2018 14:00:00 11,8 6,5 41 22 62 33 S 0,0
12.01.2018 13:00:00 11,0 5,8 33 18 50 27 S -
12.01.2018 12:00:00 10,4 5,6 35 19 54 29 S 0,0
12.01.2018 11:00:00 10,1 5,3 30 16 45 24 S 0,0
12.01.2018 10:00:00 9,5 4,7 27 15 42 23 S 0,0
12.01.2018 09:00:00 9,1 4,3 30 16 44 24 S 0,0
12.01.2018 08:00:00 8,3 4,0 18 10 32 18 SSE 0,0
12.01.2018 07:00:00 8,4 3,7 21 11 37 20 SSE -
12.01.2018 06:00:00 8,5 3,8 24 13 36 19 SSE 0,0
12.01.2018 05:00:00 7,9 3,6 24 13 34 18 SSE 0,0
12.01.2018 04:00:00 7,7 3,0 20 11 32 17 SSE 0,0
12.01.2018 03:00:00 7,6 3,3 21 11 28 15 SSE 0,0
12.01.2018 02:00:00 7,3 3,4 20 11 30 16 SSE 0,0
12.01.2018 01:00:00 7,3 3,5 17 9 23 12 SSE -
12.01.2018 00:00:00 7,1 3,7 16 9 21 11 SE 0,0
11.01.2018 23:00:00 7,2 3,8 14 8 19 10 SE 0,0
11.01.2018 22:00:00 7,2 3,8 12 6 16 8 SE 0,0
11.01.2018 21:00:00 7,9 3,9 11 6 14 8 SE 0,0
11.01.2018 20:00:00 9,3 4,1 3 2 14 8 N 0,0
11.01.2018 19:00:00 9,6 4,0 9 5 16 9 N -
11.01.2018 18:00:00 10,3 3,8 8 4 20 11 NW 0,0
11.01.2018 17:00:00 11,0 4,0 13 7 22 12 NNW 0,0
11.01.2018 16:00:00 11,5 3,8 11 6 26 14 NW 0,0
11.01.2018 15:00:00 11,6 3,9 16 9 28 15 NNW 0,0
11.01.2018 14:00:00 10,9 3,2 16 9 34 18 NNW 0,0
11.01.2018 13:00:00 11,7 4,0 23 12 36 19 WNW -
11.01.2018 12:00:00 10,8 6,0 17 9 35 19 NW 0,0
11.01.2018 11:00:00 9,5 5,7 24 13 51 27 NW 0,1
11.01.2018 10:00:00 9,8 5,2 18 10 41 22 NW 0,0
11.01.2018 09:00:00 9,5 4,3 29 16 45 25 NW 0,0
11.01.2018 08:00:00 9,6 4,8 30 16 44 24 WNW 0,0
11.01.2018 07:00:00 9,4 5,0 35 19 54 29 WNW -
11.01.2018 06:00:00 9,9 4,7 36 19 50 27 WNW 0,0
11.01.2018 05:00:00 9,5 5,1 34 19 54 29 WNW 0,0
11.01.2018 04:00:00 8,0 4,2 26 14 72 39 NW 0,0
11.01.2018 03:00:00 9,0 5,0 40 22 66 36 W 0,0
11.01.2018 02:00:00 9,4 5,4 36 19 58 31 WNW 0,0
11.01.2018 01:00:00 9,9 5,3 38 21 66 35 WNW -
11.01.2018 00:00:00 9,9 5,3 39 21 60 33 W 0,0
10.01.2018 23:00:00 9,7 7,5 37 20 69 37 W 0,0
10.01.2018 22:00:00 9,6 8,4 39 21 54 29 W 0,0
10.01.2018 21:00:00 8,9 7,8 31 17 84 46 WSW 2,6
10.01.2018 20:00:00 11,0 6,9 52 28 67 36 WSW 0,0

tt = temperature
td = dewpoint
ff = wind speed
fx = gusts
dd = wind direction
rr = precipitation

Next stations